Time;durP1;ratioP1;P1;durP2;ratioP2;P2;SDS_P1;SDS_P2;PMS_P1;PMS_P2;Temp;Humidity;BMP_temperature;BMP_pressure;BME280_temperature;BME280_humidity;BME280_pressure;Samples;Min_cycle;Max_cycle;Signal;HPM_P1;HPM_P2
2021/05/14 00:00:47;;;;;;;3.50;1.90;;;;;;;;;;4953774;28;20165;-65
2021/05/14 00:03:16;;;;;;;3.38;2.00;;;;;;;;;;4952390;28;20043;-65
2021/05/14 00:05:44;;;;;;;3.05;1.70;;;;;;;;;;4953275;28;20066;-65
2021/05/14 00:08:13;;;;;;;1.65;1.35;;;;;;;;;;4952262;28;20062;-65
2021/05/14 00:10:41;;;;;;;2.55;1.60;;;;;;;;;;4950430;28;20488;-65
2021/05/14 00:13:10;;;;;;;4.70;1.90;;;;;;;;;;4952909;28;20078;-65
2021/05/14 00:15:38;;;;;;;3.13;1.80;;;;;;;;;;4953515;28;20059;-65
2021/05/14 00:18:06;;;;;;;2.65;1.55;;;;;;;;;;4952577;28;20058;-65
2021/05/14 00:20:34;;;;;;;4.70;1.80;;;;;;;;;;4953412;28;20551;-65
2021/05/14 00:23:02;;;;;;;4.65;1.50;;;;;;;;;;4951690;28;20058;-65
2021/05/14 00:25:31;;;;;;;4.28;1.70;;;;;;;;;;4953215;28;20047;-65
2021/05/14 00:27:59;;;;;;;3.20;1.50;;;;;;;;;;4951920;28;20059;-65
2021/05/14 00:30:27;;;;;;;1.90;1.50;;;;;;;;;;4952973;28;20130;-65
2021/05/14 00:32:55;;;;;;;3.00;1.50;;;;;;;;;;4947975;28;20475;-65
2021/05/14 00:35:23;;;;;;;2.78;1.60;;;;;;;;;;4952778;28;20043;-66
2021/05/14 00:37:51;;;;;;;2.67;1.75;;;;;;;;;;4947503;28;20051;-65
2021/05/14 00:40:19;;;;;;;5.80;1.45;;;;;;;;;;4952944;28;20058;-65
2021/05/14 00:42:48;;;;;;;4.95;1.95;;;;;;;;;;4951716;28;20141;-66
2021/05/14 00:45:16;;;;;;;2.75;1.40;;;;;;;;;;4953225;28;20051;-65
2021/05/14 00:47:45;;;;;;;4.13;1.73;;;;;;;;;;4951458;28;20039;-65
2021/05/14 00:50:13;;;;;;;2.35;1.60;;;;;;;;;;4952529;28;20066;-66
2021/05/14 00:52:41;;;;;;;5.50;1.55;;;;;;;;;;4951631;28;20086;-65
2021/05/14 00:55:10;;;;;;;3.03;1.60;;;;;;;;;;4952236;28;20043;-65
2021/05/14 00:57:38;;;;;;;2.50;1.55;;;;;;;;;;4949185;28;20495;-65
2021/05/14 01:00:08;;;;;;;3.50;1.40;;;;;;;;;;4952272;28;20056;-66
2021/05/14 01:02:36;;;;;;;6.70;1.70;;;;;;;;;;4950837;28;20043;-65
2021/05/14 01:05:05;;;;;;;3.60;1.42;;;;;;;;;;4939461;28;20447;-65
2021/05/14 01:07:33;;;;;;;4.88;1.70;;;;;;;;;;4936922;28;20067;-65
2021/05/14 01:10:01;;;;;;;3.28;1.52;;;;;;;;;;4945864;29;20055;-65
2021/05/14 01:12:29;;;;;;;2.53;1.67;;;;;;;;;;4949281;28;20130;-66
2021/05/14 01:14:57;;;;;;;2.78;1.50;;;;;;;;;;4942600;28;20047;-66
2021/05/14 01:17:27;;;;;;;4.03;1.50;;;;;;;;;;4949991;28;20072;-65
2021/05/14 01:19:54;;;;;;;3.05;1.45;;;;;;;;;;4950145;28;20055;-65
2021/05/14 01:22:25;;;;;;;3.70;1.58;;;;;;;;;;4947838;28;20629;-65
2021/05/14 01:24:53;;;;;;;3.40;1.45;;;;;;;;;;4943755;29;20063;-65
2021/05/14 01:27:21;;;;;;;4.10;1.17;;;;;;;;;;4950578;28;20100;-66
2021/05/14 01:29:49;;;;;;;3.25;1.30;;;;;;;;;;4951196;28;20062;-65
2021/05/14 01:32:18;;;;;;;1.83;1.42;;;;;;;;;;4937502;28;20430;-65
2021/05/14 01:34:46;;;;;;;5.72;1.30;;;;;;;;;;4948246;28;20482;-65
2021/05/14 01:37:13;;;;;;;4.03;2.00;;;;;;;;;;4944736;28;20090;-66
2021/05/14 01:39:42;;;;;;;3.20;1.25;;;;;;;;;;4949453;28;20074;-65
2021/05/14 01:42:11;;;;;;;2.22;1.45;;;;;;;;;;4946459;28;20540;-65
2021/05/14 01:44:39;;;;;;;3.58;1.40;;;;;;;;;;4949278;28;20043;-65
2021/05/14 01:47:07;;;;;;;3.28;1.40;;;;;;;;;;4948766;28;20053;-65
2021/05/14 01:49:35;;;;;;;5.07;1.73;;;;;;;;;;4950000;28;20459;-65
2021/05/14 01:52:03;;;;;;;3.55;1.67;;;;;;;;;;4946918;28;20469;-65
2021/05/14 01:54:31;;;;;;;2.60;1.17;;;;;;;;;;4948832;28;20474;-65
2021/05/14 01:57:00;;;;;;;3.45;1.20;;;;;;;;;;4950047;28;20432;-65
2021/05/14 01:59:28;;;;;;;3.22;1.40;;;;;;;;;;4948844;28;20447;-65
2021/05/14 02:01:56;;;;;;;2.72;1.75;;;;;;;;;;4948493;28;20055;-65
2021/05/14 02:04:25;;;;;;;1.70;1.25;;;;;;;;;;4948407;28;20114;-66
2021/05/14 02:06:53;;;;;;;1.95;1.20;;;;;;;;;;4949966;28;20058;-66
2021/05/14 02:09:21;;;;;;;2.60;1.38;;;;;;;;;;4949640;28;20121;-66
2021/05/14 02:11:49;;;;;;;2.30;1.30;;;;;;;;;;4944790;28;20082;-65
2021/05/14 02:14:19;;;;;;;2.60;1.40;;;;;;;;;;4949944;28;20047;-66
2021/05/14 02:16:47;;;;;;;1.92;1.45;;;;;;;;;;4949998;28;20476;-66
2021/05/14 02:19:16;;;;;;;3.50;1.30;;;;;;;;;;4949287;28;20058;-66
2021/05/14 02:21:44;;;;;;;3.50;1.30;;;;;;;;;;4952347;28;20138;-65
2021/05/14 02:24:12;;;;;;;2.13;1.20;;;;;;;;;;4955434;28;20051;-65
2021/05/14 02:26:40;;;;;;;1.85;1.20;;;;;;;;;;4953165;28;20461;-65
2021/05/14 02:29:08;;;;;;;1.92;1.17;;;;;;;;;;4950198;28;20058;-65
2021/05/14 02:31:37;;;;;;;3.60;1.30;;;;;;;;;;4949345;29;20094;-65
2021/05/14 02:34:05;;;;;;;1.95;1.30;;;;;;;;;;4948527;29;20061;-65
2021/05/14 02:36:33;;;;;;;2.63;1.30;;;;;;;;;;4945703;28;20047;-65
2021/05/14 02:39:01;;;;;;;7.68;1.73;;;;;;;;;;4954391;28;20047;-65
2021/05/14 02:41:29;;;;;;;1.77;1.15;;;;;;;;;;4954250;28;20051;-66
2021/05/14 02:43:58;;;;;;;3.15;1.48;;;;;;;;;;4954370;28;20138;-65
2021/05/14 02:46:25;;;;;;;1.80;1.10;;;;;;;;;;4952427;28;20047;-65
2021/05/14 02:48:54;;;;;;;4.60;1.40;;;;;;;;;;4968124;28;20069;-67
2021/05/14 02:51:23;;;;;;;3.13;1.13;;;;;;;;;;4956662;28;20043;-65
2021/05/14 02:53:51;;;;;;;2.15;1.20;;;;;;;;;;4954800;28;20051;-65
2021/05/14 02:56:19;;;;;;;2.92;1.17;;;;;;;;;;4951074;28;20055;-65
2021/05/14 02:58:47;;;;;;;3.65;1.30;;;;;;;;;;4954564;28;20499;-65
2021/05/14 03:01:15;;;;;;;1.58;1.05;;;;;;;;;;4954193;28;20062;-65
2021/05/14 03:03:43;;;;;;;8.73;1.42;;;;;;;;;;4954381;28;20422;-65
2021/05/14 03:06:12;;;;;;;2.38;1.02;;;;;;;;;;4953565;28;20102;-65
2021/05/14 03:08:40;;;;;;;2.95;1.05;;;;;;;;;;4954171;28;20087;-65
2021/05/14 03:11:08;;;;;;;3.08;1.08;;;;;;;;;;4954113;28;20479;-65
2021/05/14 03:13:36;;;;;;;2.20;1.23;;;;;;;;;;4953937;28;20052;-66
2021/05/14 03:16:05;;;;;;;4.07;1.17;;;;;;;;;;4953561;28;20051;-65
2021/05/14 03:18:33;;;;;;;2.85;1.30;;;;;;;;;;4949509;28;20185;-67
2021/05/14 03:21:01;;;;;;;1.80;1.17;;;;;;;;;;4954559;29;20134;-65
2021/05/14 03:23:30;;;;;;;1.60;1.10;;;;;;;;;;4954986;28;20054;-65
2021/05/14 03:25:58;;;;;;;6.50;1.20;;;;;;;;;;4954455;28;20673;-65
2021/05/14 03:28:26;;;;;;;5.25;1.27;;;;;;;;;;4970305;28;20097;-65
2021/05/14 03:30:54;;;;;;;3.30;1.20;;;;;;;;;;4952831;28;20149;-66
2021/05/14 03:33:22;;;;;;;1.77;1.25;;;;;;;;;;4952280;29;20372;-65
2021/05/14 03:35:50;;;;;;;5.70;1.60;;;;;;;;;;4945521;28;20106;-66
2021/05/14 03:38:21;;;;;;;2.00;1.23;;;;;;;;;;4950064;28;20047;-66
2021/05/14 03:40:51;;;;;;;2.88;1.20;;;;;;;;;;4951499;28;20142;-65
2021/05/14 03:43:19;;;;;;;2.60;1.38;;;;;;;;;;4952303;28;20605;-65
2021/05/14 03:45:47;;;;;;;3.35;1.10;;;;;;;;;;4952912;28;20087;-65
2021/05/14 03:48:18;;;;;;;2.25;1.05;;;;;;;;;;4957596;28;20110;-66
2021/05/14 03:50:47;;;;;;;3.22;1.10;;;;;;;;;;4953916;28;20503;-65
2021/05/14 03:53:15;;;;;;;1.67;1.08;;;;;;;;;;4952571;28;20055;-65
2021/05/14 03:55:43;;;;;;;5.47;1.20;;;;;;;;;;4953529;28;20138;-65
2021/05/14 03:58:12;;;;;;;6.30;1.45;;;;;;;;;;4951973;28;20114;-65
2021/05/14 04:00:41;;;;;;;5.10;1.25;;;;;;;;;;4952090;28;20117;-65
2021/05/14 04:03:09;;;;;;;2.67;1.20;;;;;;;;;;4950336;28;20098;-65
2021/05/14 04:05:40;;;;;;;2.45;1.27;;;;;;;;;;4952914;28;20051;-65
2021/05/14 04:08:09;;;;;;;4.35;1.30;;;;;;;;;;4952503;28;20134;-67
2021/05/14 04:10:50;;;;;;;2.13;1.25;;;;;;;;;;4953122;28;20043;-65
2021/05/14 04:16:07;;;;;;;3.50;1.40;;;;;;;;;;4950074;28;20043;-65
2021/05/14 04:18:37;;;;;;;3.80;1.40;;;;;;;;;;4950983;28;20071;-66
2021/05/14 04:21:05;;;;;;;2.78;1.48;;;;;;;;;;4952103;28;20086;-66
2021/05/14 04:23:34;;;;;;;2.88;1.48;;;;;;;;;;4949679;29;20143;-66
2021/05/14 04:26:02;;;;;;;3.83;1.20;;;;;;;;;;4949127;29;20059;-65
2021/05/14 04:28:31;;;;;;;3.13;1.30;;;;;;;;;;4951868;28;20054;-65
2021/05/14 04:30:59;;;;;;;1.92;1.20;;;;;;;;;;4951794;28;20063;-65
2021/05/14 04:33:27;;;;;;;5.05;1.52;;;;;;;;;;4952770;28;20075;-65
2021/05/14 04:35:55;;;;;;;3.25;1.35;;;;;;;;;;4949315;28;20051;-65
2021/05/14 04:38:23;;;;;;;2.17;1.25;;;;;;;;;;4950622;28;20063;-66
2021/05/14 04:40:52;;;;;;;5.85;1.20;;;;;;;;;;4952329;28;20081;-65
2021/05/14 04:43:21;;;;;;;1.73;1.30;;;;;;;;;;4951431;28;20480;-65
2021/05/14 04:45:50;;;;;;;1.27;1.13;;;;;;;;;;4947926;28;20102;-66
2021/05/14 04:48:18;;;;;;;1.73;1.20;;;;;;;;;;4957230;28;20558;-66
2021/05/14 04:50:46;;;;;;;3.80;1.20;;;;;;;;;;4938612;29;20062;-65
2021/05/14 04:53:15;;;;;;;2.83;1.40;;;;;;;;;;4952375;29;20106;-65
2021/05/14 04:55:44;;;;;;;3.17;1.40;;;;;;;;;;4951910;28;20055;-66
2021/05/14 04:58:12;;;;;;;5.05;1.33;;;;;;;;;;4950665;28;20055;-65
2021/05/14 05:00:40;;;;;;;1.70;1.20;;;;;;;;;;4949940;28;20059;-65
2021/05/14 05:03:09;;;;;;;3.00;1.75;;;;;;;;;;4947351;29;20047;-66
2021/05/14 05:05:37;;;;;;;1.33;1.02;;;;;;;;;;4951974;28;20043;-66
2021/05/14 05:08:05;;;;;;;4.43;1.58;;;;;;;;;;4950696;28;20395;-66
2021/05/14 05:10:33;;;;;;;1.88;1.65;;;;;;;;;;4947168;28;20130;-65
2021/05/14 05:13:01;;;;;;;8.95;1.88;;;;;;;;;;4950968;29;20396;-66
2021/05/14 05:15:29;;;;;;;3.38;1.83;;;;;;;;;;4950697;29;20094;-65
2021/05/14 05:17:57;;;;;;;3.05;1.80;;;;;;;;;;4951003;28;20138;-66
2021/05/14 05:20:26;;;;;;;3.80;1.60;;;;;;;;;;4951688;28;20139;-67
2021/05/14 05:22:55;;;;;;;4.32;1.50;;;;;;;;;;4948341;28;20123;-66
2021/05/14 05:25:23;;;;;;;5.13;1.52;;;;;;;;;;4948704;28;20126;-65
2021/05/14 05:27:51;;;;;;;2.83;1.50;;;;;;;;;;4948554;28;20054;-64
2021/05/14 05:30:22;;;;;;;3.80;1.50;;;;;;;;;;4949772;28;20071;-65
2021/05/14 05:32:50;;;;;;;3.90;1.65;;;;;;;;;;4943968;28;20055;-65
2021/05/14 05:35:18;;;;;;;2.03;1.33;;;;;;;;;;4941812;28;20047;-66
2021/05/14 05:37:48;;;;;;;4.68;1.80;;;;;;;;;;4945568;28;20094;-65
2021/05/14 05:40:16;;;;;;;2.47;1.70;;;;;;;;;;4948861;28;20079;-66
2021/05/14 05:42:44;;;;;;;3.13;1.80;;;;;;;;;;4945115;28;20043;-65
2021/05/14 05:45:12;;;;;;;1.77;1.05;;;;;;;;;;4942027;28;20074;-65
2021/05/14 05:47:40;;;;;;;3.63;1.23;;;;;;;;;;4946138;28;20051;-65
2021/05/14 05:50:09;;;;;;;4.50;1.50;;;;;;;;;;4963123;28;20451;-65
2021/05/14 05:52:36;;;;;;;2.72;1.40;;;;;;;;;;4944328;28;20082;-66
2021/05/14 05:55:06;;;;;;;4.18;0.95;;;;;;;;;;4945295;28;20090;-64
2021/05/14 05:57:34;;;;;;;3.33;0.93;;;;;;;;;;4948605;28;20055;-65
2021/05/14 06:00:02;;;;;;;2.60;1.10;;;;;;;;;;4949338;28;20055;-65
2021/05/14 06:02:31;;;;;;;2.47;1.02;;;;;;;;;;4943999;28;20393;-65
2021/05/14 06:04:59;;;;;;;4.38;1.15;;;;;;;;;;4950221;29;20053;-65
2021/05/14 06:07:27;;;;;;;2.35;1.33;;;;;;;;;;4951986;28;20134;-66
2021/05/14 06:09:55;;;;;;;3.28;1.02;;;;;;;;;;4947730;28;20481;-66
2021/05/14 06:12:24;;;;;;;2.83;1.58;;;;;;;;;;4950137;28;20047;-65
2021/05/14 06:14:53;;;;;;;3.42;1.17;;;;;;;;;;4950652;29;20051;-64
2021/05/14 06:17:21;;;;;;;5.13;1.20;;;;;;;;;;4946083;28;20044;-64
2021/05/14 06:19:52;;;;;;;1.83;1.38;;;;;;;;;;4951541;28;20051;-65
2021/05/14 06:22:21;;;;;;;2.75;1.35;;;;;;;;;;4947763;28;20051;-65
2021/05/14 06:24:48;;;;;;;1.65;1.10;;;;;;;;;;4948745;28;20050;-65
2021/05/14 06:27:16;;;;;;;5.45;1.27;;;;;;;;;;4945721;28;20451;-64
2021/05/14 06:29:46;;;;;;;1.45;1.00;;;;;;;;;;4947350;29;20102;-65
2021/05/14 06:32:14;;;;;;;2.90;1.45;;;;;;;;;;4948301;28;20304;-65
2021/05/14 06:34:43;;;;;;;4.45;1.20;;;;;;;;;;4943163;28;20112;-64
2021/05/14 06:37:11;;;;;;;4.47;1.15;;;;;;;;;;4946841;28;20127;-66
2021/05/14 06:39:39;;;;;;;3.03;1.35;;;;;;;;;;4940671;28;20047;-64
2021/05/14 06:42:07;;;;;;;3.55;1.55;;;;;;;;;;4940332;29;20105;-65
2021/05/14 06:44:35;;;;;;;2.60;1.25;;;;;;;;;;4944138;28;20057;-64
2021/05/14 06:47:04;;;;;;;4.43;1.20;;;;;;;;;;4944139;28;20427;-64
2021/05/14 06:49:32;;;;;;;2.65;0.98;;;;;;;;;;4937331;29;20051;-65
2021/05/14 06:52:00;;;;;;;2.40;1.30;;;;;;;;;;4950947;29;20106;-65
2021/05/14 06:54:28;;;;;;;1.90;1.00;;;;;;;;;;4931661;29;20056;-66
2021/05/14 06:56:57;;;;;;;1.67;1.10;;;;;;;;;;4948403;28;20047;-65
2021/05/14 06:59:25;;;;;;;3.65;1.10;;;;;;;;;;4943671;28;20329;-65
2021/05/14 07:01:55;;;;;;;2.50;1.10;;;;;;;;;;4944915;28;20557;-65
2021/05/14 07:04:25;;;;;;;2.58;1.10;;;;;;;;;;4949110;29;20047;-65
2021/05/14 07:06:54;;;;;;;2.40;0.98;;;;;;;;;;4950410;28;20063;-66
2021/05/14 07:09:22;;;;;;;1.38;1.08;;;;;;;;;;4968597;28;20082;-65
2021/05/14 07:11:50;;;;;;;3.35;1.20;;;;;;;;;;4958374;28;20050;-64
2021/05/14 07:14:19;;;;;;;5.30;2.28;;;;;;;;;;4952055;28;20558;-66
2021/05/14 07:16:47;;;;;;;2.28;1.20;;;;;;;;;;4948576;28;20055;-64
2021/05/14 07:19:15;;;;;;;2.10;1.30;;;;;;;;;;4949889;28;20051;-65
2021/05/14 07:21:45;;;;;;;4.40;0.80;;;;;;;;;;4953113;28;20077;-64
2021/05/14 07:24:13;;;;;;;2.50;1.38;;;;;;;;;;4952971;28;20051;-65
2021/05/14 07:26:43;;;;;;;3.33;1.00;;;;;;;;;;4950285;28;20138;-65
2021/05/14 07:29:15;;;;;;;2.72;1.00;;;;;;;;;;4948448;29;20391;-64
2021/05/14 07:31:47;;;;;;;2.05;0.77;;;;;;;;;;4947959;28;20051;-64
2021/05/14 07:34:22;;;;;;;2.53;0.75;;;;;;;;;;4953921;29;20063;-65
2021/05/14 07:37:05;;;;;;;2.67;0.85;;;;;;;;;;4936306;28;20559;-64
2021/05/14 07:39:36;;;;;;;2.22;0.90;;;;;;;;;;4949098;29;20059;-65
2021/05/14 07:42:06;;;;;;;1.65;0.93;;;;;;;;;;4947901;28;20107;-65
2021/05/14 07:44:36;;;;;;;2.80;0.90;;;;;;;;;;4948007;28;20402;-65
2021/05/14 07:47:06;;;;;;;2.28;0.68;;;;;;;;;;4955649;28;20402;-65
2021/05/14 07:49:35;;;;;;;3.15;1.45;;;;;;;;;;4965846;28;20051;-64
2021/05/14 07:52:05;;;;;;;2.80;0.75;;;;;;;;;;4950642;28;20047;-65
2021/05/14 07:54:33;;;;;;;1.83;0.70;;;;;;;;;;4951640;28;20454;-65
2021/05/14 07:57:02;;;;;;;3.22;0.80;;;;;;;;;;4948603;28;20054;-65
2021/05/14 07:59:31;;;;;;;1.33;0.60;;;;;;;;;;4946560;28;20043;-65
2021/05/14 08:01:59;;;;;;;0.88;0.60;;;;;;;;;;4949086;28;20054;-65
2021/05/14 08:04:27;;;;;;;1.02;0.60;;;;;;;;;;4944710;28;20070;-65
2021/05/14 08:06:56;;;;;;;1.42;0.47;;;;;;;;;;4945109;28;20106;-64
2021/05/14 08:09:27;;;;;;;1.40;0.60;;;;;;;;;;4949839;28;20051;-64
2021/05/14 08:11:56;;;;;;;2.17;0.60;;;;;;;;;;4950879;28;20048;-64
2021/05/14 08:14:24;;;;;;;0.70;0.50;;;;;;;;;;4951605;29;20379;-64
2021/05/14 08:16:54;;;;;;;1.27;0.60;;;;;;;;;;4948924;28;20043;-65
2021/05/14 08:19:23;;;;;;;3.40;0.80;;;;;;;;;;4949232;28;20074;-65
2021/05/14 08:21:53;;;;;;;2.45;0.70;;;;;;;;;;4946205;29;20051;-65
2021/05/14 08:24:23;;;;;;;3.05;0.80;;;;;;;;;;4949738;28;20055;-65
2021/05/14 08:26:55;;;;;;;1.70;0.70;;;;;;;;;;4951395;28;20055;-64
2021/05/14 08:29:25;;;;;;;5.53;1.40;;;;;;;;;;4948380;29;20063;-65
2021/05/14 08:31:54;;;;;;;1.85;0.60;;;;;;;;;;4949534;28;20066;-64
2021/05/14 08:34:24;;;;;;;4.25;0.90;;;;;;;;;;4952647;28;20047;-64
2021/05/14 08:36:53;;;;;;;1.58;0.70;;;;;;;;;;4938500;28;20531;-65
2021/05/14 08:39:21;;;;;;;4.20;0.77;;;;;;;;;;4951480;28;20039;-63
2021/05/14 08:41:56;;;;;;;1.60;0.82;;;;;;;;;;4947598;28;20051;-64
2021/05/14 08:44:35;;;;;;;2.78;0.70;;;;;;;;;;4948485;28;20074;-64
2021/05/14 08:47:07;;;;;;;1.52;0.63;;;;;;;;;;4953684;28;20055;-64
2021/05/14 08:49:35;;;;;;;3.80;0.60;;;;;;;;;;4957933;28;20059;-64
2021/05/14 08:52:07;;;;;;;0.85;0.50;;;;;;;;;;4949094;28;20079;-65
2021/05/14 08:54:35;;;;;;;2.03;0.60;;;;;;;;;;4953400;28;20447;-64
2021/05/14 08:57:05;;;;;;;0.80;0.52;;;;;;;;;;4947751;28;20505;-64
2021/05/14 08:59:35;;;;;;;5.43;0.77;;;;;;;;;;4950156;28;20053;-69
2021/05/14 09:02:04;;;;;;;1.73;0.60;;;;;;;;;;4931937;29;20051;-64
2021/05/14 09:04:33;;;;;;;1.70;0.73;;;;;;;;;;4943868;28;20047;-64
2021/05/14 09:07:13;;;;;;;2.03;0.52;;;;;;;;;;4951211;28;20058;-65
2021/05/14 09:09:42;;;;;;;2.13;0.50;;;;;;;;;;4952271;28;20047;-68
2021/05/14 09:12:10;;;;;;;1.27;0.70;;;;;;;;;;4940885;29;20055;-64
2021/05/14 09:14:41;;;;;;;2.22;0.65;;;;;;;;;;4950102;28;20457;-63
2021/05/14 09:17:10;;;;;;;1.55;0.50;;;;;;;;;;4947181;28;20082;-64
2021/05/14 09:19:39;;;;;;;1.20;0.70;;;;;;;;;;4945645;28;20058;-65
2021/05/14 09:22:11;;;;;;;3.72;0.80;;;;;;;;;;4942208;28;20051;-63
2021/05/14 09:24:39;;;;;;;1.92;0.90;;;;;;;;;;4945047;29;20078;-63
2021/05/14 09:27:25;;;;;;;1.98;0.70;;;;;;;;;;4941143;28;20145;-63
2021/05/14 09:29:57;;;;;;;5.55;0.90;;;;;;;;;;4932754;29;20047;-64
2021/05/14 09:32:26;;;;;;;0.77;0.50;;;;;;;;;;4940087;29;20131;-66
2021/05/14 09:34:55;;;;;;;4.00;0.70;;;;;;;;;;4948768;28;20055;-63
2021/05/14 09:37:25;;;;;;;4.47;0.60;;;;;;;;;;4947619;28;20551;-65
2021/05/14 09:40:08;;;;;;;0.90;0.50;;;;;;;;;;4947776;28;20511;-64
2021/05/14 09:42:36;;;;;;;4.60;0.60;;;;;;;;;;4938037;28;20380;-64
2021/05/14 09:45:18;;;;;;;0.60;0.40;;;;;;;;;;4942885;29;20517;-68
2021/05/14 09:47:58;;;;;;;4.57;0.85;;;;;;;;;;4940656;28;20047;-65
2021/05/14 09:50:37;;;;;;;3.60;0.70;;;;;;;;;;4945191;28;20044;-64
2021/05/14 09:53:10;;;;;;;2.65;0.70;;;;;;;;;;4947614;28;20047;-64
2021/05/14 09:55:39;;;;;;;2.42;0.60;;;;;;;;;;4946668;28;20097;-66
2021/05/14 09:58:12;;;;;;;5.28;0.77;;;;;;;;;;4936480;28;20059;-64
2021/05/14 10:00:42;;;;;;;0.85;0.45;;;;;;;;;;4942920;28;20047;-64
2021/05/14 10:03:11;;;;;;;1.48;0.50;;;;;;;;;;4949289;28;20054;-66
2021/05/14 10:05:40;;;;;;;3.85;0.60;;;;;;;;;;4944213;28;20419;-63
2021/05/14 10:08:08;;;;;;;2.65;0.45;;;;;;;;;;4949160;28;20118;-63
2021/05/14 10:10:36;;;;;;;2.58;0.40;;;;;;;;;;4950514;28;20094;-63
2021/05/14 10:13:05;;;;;;;1.23;0.50;;;;;;;;;;4949510;28;20051;-67
2021/05/14 10:15:34;;;;;;;4.22;0.50;;;;;;;;;;4950259;28;20047;-64
2021/05/14 10:18:06;;;;;;;0.65;0.55;;;;;;;;;;4947144;28;20419;-63
2021/05/14 10:20:36;;;;;;;1.35;0.32;;;;;;;;;;4949567;28;20047;-63
2021/05/14 10:23:05;;;;;;;0.80;0.40;;;;;;;;;;4948666;28;20423;-63
2021/05/14 10:25:44;;;;;;;1.65;0.40;;;;;;;;;;4946843;28;20082;-66
2021/05/14 10:28:13;;;;;;;0.38;0.32;;;;;;;;;;4943564;28;20051;-64
2021/05/14 10:31:04;;;;;;;2.15;0.43;;;;;;;;;;4946382;28;20058;-64
2021/05/14 10:33:45;;;;;;;2.50;0.70;;;;;;;;;;4946534;28;20071;-65
2021/05/14 10:36:45;;;;;;;0.80;0.40;;;;;;;;;;4940227;28;20073;-64
2021/05/14 10:39:16;;;;;;;0.50;0.40;;;;;;;;;;4904602;29;20052;-63
2021/05/14 10:41:51;;;;;;;1.48;0.45;;;;;;;;;;4943276;28;20051;-63
2021/05/14 10:44:39;;;;;;;3.10;0.50;;;;;;;;;;4950693;28;20055;-64
2021/05/14 10:47:34;;;;;;;0.65;0.45;;;;;;;;;;4953660;28;20055;-63
2021/05/14 10:50:13;;;;;;;1.10;0.40;;;;;;;;;;4954220;28;20077;-65
2021/05/14 10:52:55;;;;;;;3.03;0.52;;;;;;;;;;4949891;29;20126;-64
2021/05/14 10:55:30;;;;;;;2.10;0.38;;;;;;;;;;4956420;28;20073;-65
2021/05/14 10:58:00;;;;;;;2.30;0.30;;;;;;;;;;4953199;28;20754;-64
2021/05/14 11:00:38;;;;;;;0.52;0.30;;;;;;;;;;4950772;28;20130;-64
2021/05/14 11:03:20;;;;;;;4.30;1.15;;;;;;;;;;4948223;29;20051;-64
2021/05/14 11:05:50;;;;;;;1.10;0.60;;;;;;;;;;4953371;29;20166;-66
2021/05/14 11:08:46;;;;;;;0.70;0.40;;;;;;;;;;4946419;28;20079;-64
2021/05/14 11:11:21;;;;;;;2.05;0.40;;;;;;;;;;4898109;29;20075;-63
2021/05/14 11:13:51;;;;;;;1.65;0.60;;;;;;;;;;4949219;28;20047;-64
2021/05/14 11:16:39;;;;;;;2.03;0.73;;;;;;;;;;4952069;28;20047;-64
2021/05/14 11:19:18;;;;;;;1.02;0.50;;;;;;;;;;4959883;28;20054;-64
2021/05/14 11:21:59;;;;;;;2.47;0.60;;;;;;;;;;4950825;29;20055;-65
2021/05/14 11:24:29;;;;;;;0.70;0.40;;;;;;;;;;4952822;28;20070;-65
2021/05/14 11:27:02;;;;;;;0.68;0.40;;;;;;;;;;4952257;28;20478;-65
2021/05/14 11:29:31;;;;;;;2.17;0.40;;;;;;;;;;4947002;29;20138;-65
2021/05/14 11:32:13;;;;;;;1.70;0.50;;;;;;;;;;4951376;28;20059;-65
2021/05/14 11:34:51;;;;;;;1.27;0.52;;;;;;;;;;4943819;28;20055;-65
2021/05/14 11:37:23;;;;;;;1.08;0.50;;;;;;;;;;4948040;28;20521;-67
2021/05/14 11:39:51;;;;;;;1.08;0.40;;;;;;;;;;4952071;28;20082;-65
2021/05/14 11:42:21;;;;;;;1.05;0.40;;;;;;;;;;4952240;28;20047;-64
2021/05/14 11:44:59;;;;;;;1.35;0.40;;;;;;;;;;4950003;28;20098;-64
2021/05/14 11:47:27;;;;;;;1.33;0.60;;;;;;;;;;4952414;28;20062;-64
2021/05/14 11:49:55;;;;;;;0.50;0.40;;;;;;;;;;4952311;29;20058;-67
2021/05/14 11:52:34;;;;;;;1.75;0.45;;;;;;;;;;4949161;28;20517;-64
2021/05/14 11:55:04;;;;;;;4.53;0.50;;;;;;;;;;4952371;28;20136;-64
2021/05/14 11:57:32;;;;;;;1.30;0.60;;;;;;;;;;4942897;28;20051;-65
2021/05/14 12:00:00;;;;;;;3.80;0.63;;;;;;;;;;4946842;28;20083;-64
2021/05/14 12:02:37;;;;;;;2.22;0.65;;;;;;;;;;4951215;28;20081;-63
2021/05/14 12:05:06;;;;;;;1.40;0.40;;;;;;;;;;4949041;28;20639;-64
2021/05/14 12:07:37;;;;;;;0.90;0.30;;;;;;;;;;4947493;28;20066;-67
2021/05/14 12:10:06;;;;;;;2.00;0.47;;;;;;;;;;4952490;28;20047;-64
2021/05/14 12:12:38;;;;;;;1.33;0.50;;;;;;;;;;4947527;28;20047;-66
2021/05/14 12:15:11;;;;;;;0.55;0.50;;;;;;;;;;4952157;29;20066;-63
2021/05/14 12:17:40;;;;;;;1.48;0.50;;;;;;;;;;4946583;28;20521;-64
2021/05/14 12:20:15;;;;;;;1.13;0.40;;;;;;;;;;4959121;28;20047;-63
2021/05/14 12:22:50;;;;;;;1.55;0.40;;;;;;;;;;4948948;29;20058;-64
2021/05/14 12:25:21;;;;;;;0.60;0.32;;;;;;;;;;4951122;28;20062;-63
2021/05/14 12:27:50;;;;;;;0.70;0.40;;;;;;;;;;4951269;28;20132;-63
2021/05/14 12:30:20;;;;;;;0.52;0.47;;;;;;;;;;4952215;28;20507;-63
2021/05/14 12:32:56;;;;;;;1.15;0.32;;;;;;;;;;4948572;28;20128;-65
2021/05/14 12:35:24;;;;;;;0.60;0.40;;;;;;;;;;4950172;29;20055;-63
2021/05/14 12:37:56;;;;;;;0.93;0.40;;;;;;;;;;4944501;28;20102;-65
2021/05/14 12:40:42;;;;;;;;;;;;;;;;;;2918154;28;10001971;-64
2021/05/14 12:43:11;;;;;;;0.57;0.30;;;;;;;;;;2902844;28;10001534;-64
2021/05/14 12:45:41;;;;;;;1.23;0.40;;;;;;;;;;4947456;28;20137;-64
2021/05/14 12:48:10;;;;;;;1.40;0.30;;;;;;;;;;4950733;28;20129;-64
2021/05/14 12:50:41;;;;;;;0.68;0.32;;;;;;;;;;4952683;28;20126;-64
2021/05/14 12:53:24;;;;;;;1.00;0.47;;;;;;;;;;4952026;28;20056;-64
2021/05/14 12:55:53;;;;;;;1.73;0.43;;;;;;;;;;4948185;28;20059;-64
2021/05/14 12:58:21;;;;;;;2.10;0.57;;;;;;;;;;4948340;28;20565;-64
2021/05/14 13:00:50;;;;;;;1.45;0.52;;;;;;;;;;4948886;28;20570;-63
2021/05/14 13:03:27;;;;;;;1.75;0.50;;;;;;;;;;4946597;28;20466;-63
2021/05/14 13:05:57;;;;;;;0.95;0.30;;;;;;;;;;4949173;28;20451;-64
2021/05/14 13:08:43;;;;;;;2.63;0.45;;;;;;;;;;4944378;29;20084;-64
2021/05/14 13:11:13;;;;;;;0.98;0.57;;;;;;;;;;4943586;28;20059;-64
2021/05/14 13:13:41;;;;;;;0.75;0.32;;;;;;;;;;4947971;28;20094;-65
2021/05/14 13:16:09;;;;;;;1.98;0.40;;;;;;;;;;4947190;28;20061;-66
2021/05/14 13:18:38;;;;;;;2.90;0.50;;;;;;;;;;4946890;28;20058;-65
2021/05/14 13:21:06;;;;;;;4.20;0.40;;;;;;;;;;4950863;28;20055;-65
2021/05/14 13:23:36;;;;;;;1.63;0.50;;;;;;;;;;4947218;28;20047;-64
2021/05/14 13:26:06;;;;;;;1.83;0.60;;;;;;;;;;4945015;29;20059;-64
2021/05/14 13:28:34;;;;;;;0.98;0.47;;;;;;;;;;4947680;28;20461;-65
2021/05/14 13:31:03;;;;;;;1.13;0.40;;;;;;;;;;4951501;28;20050;-64
2021/05/14 13:33:31;;;;;;;1.20;0.38;;;;;;;;;;4948366;29;20059;-65
2021/05/14 13:35:59;;;;;;;2.22;0.60;;;;;;;;;;4947425;28;20089;-63
2021/05/14 13:38:28;;;;;;;3.22;0.60;;;;;;;;;;4941586;28;20506;-64
2021/05/14 13:40:57;;;;;;;0.95;0.50;;;;;;;;;;4944296;28;20062;-64
2021/05/14 13:43:27;;;;;;;2.05;0.50;;;;;;;;;;4942758;28;20055;-66
2021/05/14 13:45:57;;;;;;;0.60;0.30;;;;;;;;;;4946439;28;20051;-66
2021/05/14 13:48:25;;;;;;;2.08;0.60;;;;;;;;;;4946347;28;20158;-63
2021/05/14 13:50:54;;;;;;;0.50;0.40;;;;;;;;;;4947651;28;20066;-63
2021/05/14 13:53:24;;;;;;;1.58;0.60;;;;;;;;;;4947500;28;20058;-63
2021/05/14 13:55:55;;;;;;;2.38;0.50;;;;;;;;;;4943104;28;20063;-64
2021/05/14 13:58:24;;;;;;;0.70;0.30;;;;;;;;;;4946539;28;20199;-63
2021/05/14 14:00:53;;;;;;;1.33;0.43;;;;;;;;;;4947869;28;20051;-64
2021/05/14 14:03:21;;;;;;;3.25;0.55;;;;;;;;;;4946385;29;20481;-63
2021/05/14 14:05:49;;;;;;;1.13;0.50;;;;;;;;;;4946738;28;20047;-63
2021/05/14 14:08:18;;;;;;;0.77;0.40;;;;;;;;;;4946627;28;20488;-63
2021/05/14 14:10:46;;;;;;;2.42;0.43;;;;;;;;;;4945731;28;20403;-62
2021/05/14 14:13:14;;;;;;;0.90;0.40;;;;;;;;;;4947829;28;20545;-63
2021/05/14 14:15:42;;;;;;;0.50;0.22;;;;;;;;;;4944516;28;20051;-64
2021/05/14 14:18:11;;;;;;;2.83;0.50;;;;;;;;;;4947173;28;20134;-63
2021/05/14 14:20:39;;;;;;;1.65;0.35;;;;;;;;;;4950484;28;20055;-64
2021/05/14 14:23:07;;;;;;;1.08;0.40;;;;;;;;;;4951203;28;20400;-63
2021/05/14 14:25:40;;;;;;;0.95;0.40;;;;;;;;;;4946486;28;20050;-64
2021/05/14 14:28:10;;;;;;;;;;;;;;;;;;4950082;28;20141;-63
2021/05/14 14:30:39;;;;;;;2.05;0.47;;;;;;;;;;4950712;29;19926;-64
2021/05/14 14:33:07;;;;;;;0.75;0.40;;;;;;;;;;4951361;28;20059;-63
2021/05/14 14:35:37;;;;;;;3.45;0.68;;;;;;;;;;4949836;28;20409;-63
2021/05/14 14:38:13;;;;;;;1.48;0.38;;;;;;;;;;4931203;28;20055;-63
2021/05/14 14:40:42;;;;;;;1.27;0.40;;;;;;;;;;4943523;29;20039;-63
2021/05/14 14:43:12;;;;;;;2.28;0.50;;;;;;;;;;4951712;28;20051;-63
2021/05/14 14:45:40;;;;;;;2.25;0.45;;;;;;;;;;4949532;28;20590;-66
2021/05/14 14:48:10;;;;;;;0.80;0.47;;;;;;;;;;4946596;28;20059;-63
2021/05/14 14:50:39;;;;;;;1.20;0.30;;;;;;;;;;4950401;28;20096;-64
2021/05/14 14:53:08;;;;;;;1.80;0.40;;;;;;;;;;4949269;28;20086;-63
2021/05/14 14:55:36;;;;;;;1.35;0.40;;;;;;;;;;4943015;29;20057;-63
2021/05/14 14:58:04;;;;;;;1.20;0.50;;;;;;;;;;4946993;28;20055;-62
2021/05/14 15:00:33;;;;;;;5.07;0.57;;;;;;;;;;4948941;28;20451;-63
2021/05/14 15:03:01;;;;;;;0.43;0.38;;;;;;;;;;4949949;28;20061;-62